createdAt,value
2023-02-09T00:01:49.014Z,100.00
2023-02-09T00:03:53.104Z,100.00
2023-02-09T00:05:57.133Z,100.00
2023-02-09T00:08:00.866Z,100.00
2023-02-09T00:10:05.565Z,100.00
2023-02-09T00:12:28.775Z,100.00
2023-02-09T00:14:35.047Z,100.00
2023-02-09T00:16:38.878Z,100.00
2023-02-09T00:18:42.993Z,100.00
2023-02-09T00:20:47.146Z,100.00
2023-02-09T00:22:50.765Z,100.00
2023-02-09T00:24:57.258Z,100.00
2023-02-09T00:27:01.253Z,100.00
2023-02-09T00:29:07.835Z,100.00
2023-02-09T00:31:13.378Z,100.00
2023-02-09T00:33:17.306Z,100.00
2023-02-09T00:35:21.066Z,100.00
2023-02-09T00:37:24.804Z,100.00
2023-02-09T00:39:28.640Z,100.00
2023-02-09T00:41:49.556Z,100.00
2023-02-09T00:43:53.426Z,100.00
2023-02-09T00:45:59.354Z,100.00
2023-02-09T00:48:03.781Z,100.00
2023-02-09T00:50:08.961Z,100.00
2023-02-09T00:52:12.988Z,100.00
2023-02-09T00:54:18.295Z,100.00
2023-02-09T00:56:22.235Z,100.00
2023-02-09T00:58:25.964Z,100.00
2023-02-09T01:00:29.903Z,100.00
2023-02-09T01:02:35.142Z,99.91
2023-02-09T01:04:39.640Z,99.72
2023-02-09T01:06:43.191Z,99.63
2023-02-09T01:08:59.579Z,99.50
2023-02-09T01:11:09.915Z,99.23
2023-02-09T01:13:13.516Z,99.40
2023-02-09T01:15:17.056Z,98.97
2023-02-09T01:17:21.190Z,98.75
2023-02-09T01:19:26.987Z,98.79
2023-02-09T01:21:32.206Z,99.01
2023-02-09T01:23:35.741Z,98.71
2023-02-09T01:25:39.277Z,98.53
2023-02-09T01:27:43.001Z,98.21
2023-02-09T01:29:46.699Z,98.34
2023-02-09T01:31:50.863Z,98.00
2023-02-09T01:33:56.174Z,98.11
2023-02-09T01:36:06.569Z,98.00
2023-02-09T01:38:10.120Z,97.46
2023-02-09T01:40:13.935Z,97.44
2023-02-09T01:42:17.819Z,97.27
2023-02-09T01:45:05.638Z,97.22
2023-02-09T01:47:14.893Z,97.03
2023-02-09T01:49:21.968Z,96.68
2023-02-09T01:51:31.160Z,96.78
2023-02-09T01:53:34.862Z,96.87
2023-02-09T01:55:42.314Z,96.44
2023-02-09T01:57:49.340Z,96.18
2023-02-09T01:59:57.455Z,96.51
2023-02-09T02:02:00.799Z,96.20
2023-02-09T02:04:04.716Z,96.38
2023-02-09T02:06:11.835Z,95.87
2023-02-09T02:08:22.130Z,96.04
2023-02-09T02:10:26.200Z,96.11
2023-02-09T02:12:30.256Z,95.91
2023-02-09T02:14:36.485Z,95.77
2023-02-09T02:16:49.919Z,95.99
2023-02-09T02:19:13.693Z,95.66
2023-02-09T02:21:46.905Z,96.12
2023-02-09T02:24:05.917Z,96.02
2023-02-09T02:26:56.436Z,95.43
2023-02-09T02:29:25.419Z,95.68
2023-02-09T02:32:06.364Z,95.77
2023-02-09T02:34:15.601Z,95.46
2023-02-09T02:36:32.197Z,95.36
2023-02-09T02:38:39.382Z,95.55
2023-02-09T02:40:51.881Z,95.14
2023-02-09T02:42:58.353Z,94.79
2023-02-09T02:45:10.237Z,94.67
2023-02-09T02:47:19.732Z,94.78
2023-02-09T02:49:33.044Z,94.17
2023-02-09T02:51:40.212Z,94.29
2023-02-09T02:53:48.948Z,94.22
2023-02-09T02:55:54.880Z,94.06
2023-02-09T02:58:01.627Z,94.05
2023-02-09T03:00:10.605Z,93.43
2023-02-09T03:02:20.172Z,93.78
2023-02-09T03:04:24.692Z,93.70
2023-02-09T03:06:28.183Z,93.40
2023-02-09T03:08:31.633Z,93.52
2023-02-09T03:10:37.166Z,92.75
2023-02-09T03:12:47.773Z,92.92
2023-02-09T03:15:08.215Z,92.96
2023-02-09T03:17:26.039Z,92.74
2023-02-09T03:19:40.276Z,93.10
2023-02-09T03:21:51.259Z,92.61
2023-02-09T03:24:01.546Z,92.76
2023-02-09T03:26:10.644Z,92.25
2023-02-09T03:28:19.414Z,92.35
2023-02-09T03:30:24.728Z,92.20
2023-02-09T03:32:29.311Z,92.23
2023-02-09T03:34:33.025Z,92.13
2023-02-09T03:36:42.667Z,91.82
2023-02-09T03:38:46.420Z,91.81
2023-02-09T03:40:49.686Z,91.45
2023-02-09T03:42:52.988Z,91.18
2023-02-09T03:44:56.625Z,90.70
2023-02-09T03:47:01.740Z,90.78
2023-02-09T03:49:06.408Z,90.08
2023-02-09T03:51:09.725Z,90.22
2023-02-09T03:53:13.332Z,89.44
2023-02-09T03:55:16.832Z,89.55
2023-02-09T03:57:20.129Z,88.94
2023-02-09T03:59:25.302Z,88.76
2023-02-09T04:01:28.801Z,88.70
2023-02-09T04:03:32.214Z,87.54
2023-02-09T04:05:36.865Z,87.21
2023-02-09T04:07:40.183Z,87.04
2023-02-09T04:09:43.401Z,86.52
2023-02-09T04:11:47.255Z,86.09
2023-02-09T04:13:51.661Z,85.90
2023-02-09T04:15:55.120Z,85.21
2023-02-09T04:17:58.388Z,85.02
2023-02-09T04:20:01.701Z,84.13
2023-02-09T04:22:08.315Z,83.46
2023-02-09T04:24:11.866Z,83.42
2023-02-09T04:26:15.302Z,83.25
2023-02-09T04:28:18.703Z,83.30
2023-02-09T04:30:22.056Z,82.93
2023-02-09T04:32:25.458Z,83.01
2023-02-09T04:34:28.893Z,82.76
2023-02-09T04:36:32.141Z,82.72
2023-02-09T04:38:37.047Z,82.65
2023-02-09T04:40:40.282Z,82.72
2023-02-09T04:42:46.575Z,82.31
2023-02-09T04:44:49.793Z,82.69
2023-02-09T04:46:53.155Z,83.14
2023-02-09T04:48:56.410Z,82.75
2023-02-09T04:50:59.665Z,82.74
2023-02-09T04:53:02.950Z,83.05
2023-02-09T04:55:08.002Z,82.80
2023-02-09T04:57:25.053Z,83.04
2023-02-09T04:59:39.319Z,82.92
2023-02-09T05:01:42.575Z,83.09
2023-02-09T05:03:45.900Z,83.16
2023-02-09T05:05:49.305Z,82.99
2023-02-09T05:07:52.779Z,83.11
2023-02-09T05:09:56.065Z,83.29
2023-02-09T05:12:00.780Z,83.13
2023-02-09T05:14:04.086Z,82.95
2023-02-09T05:16:07.973Z,82.94
2023-02-09T05:18:11.461Z,83.09
2023-02-09T05:20:14.689Z,82.97
2023-02-09T05:22:17.940Z,83.06
2023-02-09T05:24:21.292Z,83.29
2023-02-09T05:26:24.812Z,83.13
2023-02-09T05:28:29.915Z,83.05
2023-02-09T05:30:33.768Z,83.26
2023-02-09T05:32:37.515Z,83.07
2023-02-09T05:34:41.044Z,83.23
2023-02-09T05:36:44.889Z,83.07
2023-02-09T05:38:48.463Z,82.81
2023-02-09T05:40:52.008Z,82.74
2023-02-09T05:42:55.590Z,82.69
2023-02-09T05:45:00.445Z,82.09
2023-02-09T05:47:04.207Z,81.70
2023-02-09T05:49:07.705Z,81.86
2023-02-09T05:51:11.431Z,81.79
2023-02-09T05:53:15.329Z,81.82
2023-02-09T05:55:18.976Z,81.63
2023-02-09T05:57:22.545Z,81.71
2023-02-09T05:59:26.389Z,81.45
2023-02-09T06:01:31.657Z,81.60
2023-02-09T06:03:35.067Z,80.82
2023-02-09T06:05:38.701Z,81.28
2023-02-09T06:07:43.167Z,81.10
2023-02-09T06:09:46.636Z,80.60
2023-02-09T06:11:50.279Z,80.07
2023-02-09T06:13:53.873Z,79.90
2023-02-09T06:15:57.400Z,79.46
2023-02-09T06:18:02.460Z,79.01
2023-02-09T06:20:07.076Z,78.85
2023-02-09T06:22:11.140Z,78.53
2023-02-09T06:24:15.199Z,78.20
2023-02-09T06:26:19.727Z,78.02
2023-02-09T06:28:23.440Z,77.71
2023-02-09T06:30:27.137Z,77.15
2023-02-09T06:32:30.962Z,77.13
2023-02-09T06:34:36.111Z,77.00
2023-02-09T06:36:39.852Z,76.84
2023-02-09T06:38:43.496Z,76.13
2023-02-09T06:40:48.148Z,76.14
2023-02-09T06:42:51.878Z,75.87
2023-02-09T06:44:59.694Z,75.26
2023-02-09T06:47:03.356Z,75.14
2023-02-09T06:49:07.222Z,74.49
2023-02-09T06:51:14.093Z,73.91
2023-02-09T06:53:18.996Z,73.86
2023-02-09T06:55:22.795Z,73.54
2023-02-09T06:57:26.531Z,73.25
2023-02-09T06:59:30.542Z,73.30
2023-02-09T07:01:34.623Z,73.08
2023-02-09T07:03:39.312Z,72.82
2023-02-09T07:05:42.892Z,72.28
2023-02-09T07:07:48.447Z,72.45
2023-02-09T07:09:52.395Z,72.33
2023-02-09T07:11:56.619Z,71.81
2023-02-09T07:14:01.058Z,72.29
2023-02-09T07:16:07.033Z,72.19
2023-02-09T07:18:10.874Z,72.23
2023-02-09T07:20:16.650Z,72.05
2023-02-09T07:22:20.324Z,72.09
2023-02-09T07:24:26.846Z,71.89
2023-02-09T07:26:30.774Z,71.98
2023-02-09T07:28:35.199Z,71.68
2023-02-09T07:30:41.380Z,71.87
2023-02-09T07:32:45.440Z,71.67
2023-02-09T07:34:49.301Z,71.77
2023-02-09T07:36:53.398Z,71.39
2023-02-09T07:38:57.667Z,71.62
2023-02-09T07:41:03.882Z,71.41
2023-02-09T07:43:07.947Z,72.07
2023-02-09T07:45:11.776Z,72.45
2023-02-09T07:47:15.387Z,72.81
2023-02-09T07:49:19.717Z,73.12
2023-02-09T07:51:25.702Z,73.34
2023-02-09T07:53:30.105Z,73.31
2023-02-09T07:55:33.903Z,73.67
2023-02-09T07:57:39.002Z,73.62
2023-02-09T07:59:42.277Z,73.77
2023-02-09T08:01:46.176Z,74.12
2023-02-09T08:03:52.184Z,73.98
2023-02-09T08:06:02.137Z,74.44
2023-02-09T08:08:06.316Z,74.16
2023-02-09T08:10:10.305Z,74.19
2023-02-09T08:12:14.176Z,74.38
2023-02-09T08:14:23.345Z,74.57
2023-02-09T08:16:31.048Z,74.46
2023-02-09T08:18:41.311Z,74.57
2023-02-09T08:20:46.301Z,74.34
2023-02-09T08:22:55.347Z,74.34
2023-02-09T08:25:01.292Z,74.25
2023-02-09T08:27:05.963Z,74.11
2023-02-09T08:29:11.054Z,74.07
2023-02-09T08:31:18.560Z,73.95
2023-02-09T08:33:22.264Z,73.97
2023-02-09T08:35:26.057Z,73.71
2023-02-09T08:37:29.696Z,73.79
2023-02-09T08:39:33.388Z,73.54
2023-02-09T08:41:37.207Z,73.11
2023-02-09T08:43:40.947Z,73.25
2023-02-09T08:45:44.976Z,73.44
2023-02-09T08:47:50.466Z,73.16
2023-02-09T08:49:53.738Z,73.32
2023-02-09T08:51:57.146Z,72.87
2023-02-09T08:54:00.601Z,72.47
2023-02-09T08:56:04.505Z,71.48
2023-02-09T08:58:08.608Z,71.01
2023-02-09T09:00:14.055Z,70.43
2023-02-09T09:02:17.982Z,69.77
2023-02-09T09:04:22.878Z,68.78
2023-02-09T09:06:27.217Z,68.66
2023-02-09T09:08:31.405Z,67.84
2023-02-09T09:10:35.313Z,67.87
2023-02-09T09:12:39.634Z,67.45
2023-02-09T09:14:44.742Z,67.28
2023-02-09T09:16:48.390Z,67.06
2023-02-09T09:18:51.887Z,66.41
2023-02-09T09:20:57.651Z,66.48
2023-02-09T09:23:02.278Z,66.17
2023-02-09T09:25:06.843Z,66.25
2023-02-09T09:27:12.045Z,66.05
2023-02-09T09:29:15.363Z,65.81
2023-02-09T09:31:20.537Z,65.80
2023-02-09T09:33:24.495Z,65.58
2023-02-09T09:35:28.276Z,65.26
2023-02-09T09:37:34.831Z,65.25
2023-02-09T09:39:39.039Z,64.55
2023-02-09T09:41:43.365Z,64.48
2023-02-09T09:43:47.670Z,64.41
2023-02-09T09:45:52.060Z,63.78
2023-02-09T09:47:57.197Z,63.49
2023-02-09T09:50:00.670Z,63.26
2023-02-09T09:52:09.825Z,63.17
2023-02-09T09:54:19.154Z,63.40
2023-02-09T09:56:23.403Z,62.58
2023-02-09T09:58:30.350Z,62.13
2023-02-09T10:00:39.387Z,62.61
2023-02-09T10:02:45.559Z,62.36
2023-02-09T10:04:50.061Z,62.58
2023-02-09T10:07:00.807Z,62.96
2023-02-09T10:09:10.318Z,63.31
2023-02-09T10:11:16.920Z,63.25
2023-02-09T10:13:25.058Z,63.29
2023-02-09T10:15:31.274Z,62.27
2023-02-09T10:17:34.883Z,62.19
2023-02-09T10:19:38.605Z,62.75
2023-02-09T10:21:42.347Z,61.97
2023-02-09T10:23:48.130Z,62.02
2023-02-09T10:26:06.472Z,62.44
2023-02-09T10:28:21.638Z,61.89
2023-02-09T10:30:29.993Z,62.14
2023-02-09T10:32:40.778Z,61.61
2023-02-09T10:34:48.232Z,61.26
2023-02-09T10:36:54.806Z,61.11
2023-02-09T10:39:14.881Z,61.42
2023-02-09T10:41:18.631Z,60.48
2023-02-09T10:43:27.473Z,60.69
2023-02-09T10:45:38.577Z,60.19
2023-02-09T10:47:42.273Z,59.84
2023-02-09T10:49:53.295Z,59.70
2023-02-09T10:52:08.063Z,59.84
2023-02-09T10:54:22.328Z,59.27
2023-02-09T10:56:27.886Z,59.78
2023-02-09T10:58:34.555Z,59.35
2023-02-09T11:00:44.702Z,59.76
2023-02-09T11:02:53.398Z,59.36
2023-02-09T11:04:57.356Z,59.36
2023-02-09T11:07:04.085Z,60.03
2023-02-09T11:09:14.019Z,59.78
2023-02-09T11:11:30.333Z,59.89
2023-02-09T11:13:36.433Z,59.61
2023-02-09T11:15:46.279Z,60.14
2023-02-09T11:17:54.647Z,59.28
2023-02-09T11:20:11.152Z,59.52
2023-02-09T11:22:20.678Z,59.33
2023-02-09T11:24:31.753Z,59.44
2023-02-09T11:26:44.601Z,59.31
2023-02-09T11:28:57.810Z,58.89
2023-02-09T11:31:19.347Z,58.72
2023-02-09T11:33:34.404Z,58.22
2023-02-09T11:35:49.327Z,58.51
2023-02-09T11:37:57.624Z,59.07
2023-02-09T11:40:10.581Z,59.43
2023-02-09T11:42:36.600Z,59.11
2023-02-09T11:44:48.374Z,58.97
2023-02-09T11:47:05.767Z,58.72
2023-02-09T11:49:16.439Z,58.50
2023-02-09T11:51:22.825Z,58.71
2023-02-09T11:53:33.576Z,59.05
2023-02-09T11:55:42.643Z,58.88
2023-02-09T11:57:52.327Z,58.79
2023-02-09T12:00:00.464Z,59.38
2023-02-09T12:02:23.628Z,59.22
2023-02-09T12:04:33.997Z,59.53
2023-02-09T12:06:41.310Z,59.98
2023-02-09T12:08:54.495Z,59.36
2023-02-09T12:11:11.946Z,60.12
2023-02-09T12:13:25.538Z,59.95
2023-02-09T12:15:37.533Z,60.39
2023-02-09T12:17:46.702Z,59.88
2023-02-09T12:19:57.687Z,60.57
2023-02-09T12:22:43.253Z,60.73
2023-02-09T12:25:07.170Z,61.42
2023-02-09T12:27:26.334Z,61.51
2023-02-09T12:29:40.615Z,61.00
2023-02-09T12:32:25.948Z,61.14
2023-02-09T12:34:39.418Z,61.51
2023-02-09T12:37:18.249Z,61.89
2023-02-09T12:39:24.912Z,62.10
2023-02-09T12:41:31.619Z,62.42
2023-02-09T12:43:37.093Z,62.59
2023-02-09T12:45:42.503Z,62.22
2023-02-09T12:47:58.303Z,62.60
2023-02-09T12:50:05.037Z,62.72
2023-02-09T12:52:18.545Z,63.06
2023-02-09T12:54:36.347Z,63.64
2023-02-09T12:56:39.903Z,63.38
2023-02-09T12:58:56.605Z,63.65
2023-02-09T13:01:00.224Z,63.54
2023-02-09T13:03:14.421Z,63.80
2023-02-09T13:05:20.173Z,63.82
2023-02-09T13:07:31.064Z,63.73
2023-02-09T13:09:38.910Z,64.26
2023-02-09T13:11:49.956Z,64.15
2023-02-09T13:13:57.232Z,63.83
2023-02-09T13:16:16.434Z,63.45
2023-02-09T13:18:30.414Z,64.03
2023-02-09T13:20:57.026Z,63.41
2023-02-09T13:23:20.728Z,63.50
2023-02-09T13:25:30.059Z,63.72
2023-02-09T13:27:33.864Z,63.32
2023-02-09T13:29:37.411Z,63.54
2023-02-09T13:31:43.346Z,63.59
2023-02-09T13:33:52.528Z,63.74
2023-02-09T13:36:09.184Z,63.82
2023-02-09T13:38:21.682Z,63.93
2023-02-09T13:40:27.179Z,64.12
2023-02-09T13:42:36.187Z,64.75
2023-02-09T13:44:46.514Z,64.64
2023-02-09T13:46:55.690Z,64.52
2023-02-09T13:49:13.450Z,64.84
2023-02-09T13:51:19.934Z,65.17
2023-02-09T13:53:26.398Z,65.23
2023-02-09T13:55:32.069Z,65.04
2023-02-09T13:57:38.371Z,65.35
2023-02-09T13:59:43.760Z,65.61
2023-02-09T14:01:47.740Z,65.94
2023-02-09T14:03:58.461Z,65.74
2023-02-09T14:06:10.106Z,65.94
2023-02-09T14:08:15.020Z,65.75
2023-02-09T14:10:19.949Z,65.15
2023-02-09T14:12:48.874Z,65.66
2023-02-09T14:15:15.784Z,65.49
2023-02-09T14:17:26.515Z,65.20
2023-02-09T14:19:33.531Z,65.20
2023-02-09T14:21:47.386Z,65.19
2023-02-09T14:24:12.700Z,65.64
2023-02-09T14:26:23.418Z,65.35
2023-02-09T14:28:27.197Z,65.59
2023-02-09T14:30:36.534Z,65.57
2023-02-09T14:32:45.552Z,64.76
2023-02-09T14:34:49.922Z,65.04
2023-02-09T14:36:57.377Z,64.79
2023-02-09T14:39:14.189Z,64.70
2023-02-09T14:41:36.685Z,65.24
2023-02-09T14:43:40.512Z,65.47
2023-02-09T14:45:46.062Z,65.36
2023-02-09T14:47:49.827Z,65.55
2023-02-09T14:49:53.454Z,65.83
2023-02-09T14:52:08.135Z,65.68
2023-02-09T14:54:24.021Z,65.71
2023-02-09T14:56:33.812Z,66.15
2023-02-09T14:58:37.334Z,66.22
2023-02-09T15:00:40.596Z,66.31
2023-02-09T15:02:44.112Z,66.45
2023-02-09T15:04:47.558Z,66.64
2023-02-09T15:06:59.850Z,66.74
2023-02-09T15:09:06.279Z,66.44
2023-02-09T15:11:26.944Z,66.12
2023-02-09T15:13:33.723Z,65.38
2023-02-09T15:15:38.706Z,65.47
2023-02-09T15:17:41.950Z,64.79
2023-02-09T15:19:45.636Z,64.94
2023-02-09T15:22:05.271Z,64.38
2023-02-09T15:24:11.401Z,64.20
2023-02-09T15:26:17.465Z,63.86
2023-02-09T15:28:28.480Z,64.02
2023-02-09T15:30:34.991Z,63.58
2023-02-09T15:32:38.253Z,63.53
2023-02-09T15:34:41.560Z,63.52
2023-02-09T15:36:44.886Z,63.78
2023-02-09T15:38:48.449Z,64.49
2023-02-09T15:41:10.475Z,64.56
2023-02-09T15:43:33.268Z,65.39
2023-02-09T15:45:54.143Z,65.48
2023-02-09T15:47:59.150Z,65.75
2023-02-09T15:50:02.493Z,65.79
2023-02-09T15:52:06.704Z,66.23
2023-02-09T15:54:16.110Z,66.59
2023-02-09T15:56:21.366Z,66.76
2023-02-09T15:58:35.334Z,66.75
2023-02-09T16:00:38.919Z,67.23
2023-02-09T16:02:42.522Z,67.43
2023-02-09T16:04:46.522Z,67.60
2023-02-09T16:06:52.224Z,67.83
2023-02-09T16:08:59.890Z,67.83
2023-02-09T16:11:09.543Z,67.86
2023-02-09T16:13:15.985Z,68.16
2023-02-09T16:15:21.863Z,68.05
2023-02-09T16:17:25.374Z,68.29
2023-02-09T16:19:29.035Z,68.32
2023-02-09T16:21:34.693Z,68.23
2023-02-09T16:23:38.265Z,68.11
2023-02-09T16:25:41.974Z,68.46
2023-02-09T16:27:45.609Z,68.50
2023-02-09T16:29:50.513Z,68.64
2023-02-09T16:31:54.231Z,68.44
2023-02-09T16:33:58.129Z,68.48
2023-02-09T16:36:05.477Z,68.66
2023-02-09T16:38:17.701Z,68.67
2023-02-09T16:40:27.476Z,68.94
2023-02-09T16:42:30.961Z,69.08
2023-02-09T16:44:36.667Z,69.30
2023-02-09T16:46:41.737Z,69.17
2023-02-09T16:48:47.718Z,68.95
2023-02-09T16:50:54.017Z,68.87
2023-02-09T16:52:57.970Z,68.78
2023-02-09T16:55:05.833Z,68.62
2023-02-09T16:57:13.240Z,68.18
2023-02-09T16:59:16.876Z,68.55
2023-02-09T17:01:22.733Z,68.20
2023-02-09T17:03:33.799Z,67.97
2023-02-09T17:05:38.622Z,68.13
2023-02-09T17:07:53.662Z,68.45
2023-02-09T17:10:00.082Z,67.93
2023-02-09T17:12:03.719Z,68.24
2023-02-09T17:14:07.432Z,68.24
2023-02-09T17:16:18.717Z,68.32
2023-02-09T17:18:24.742Z,68.56
2023-02-09T17:20:34.102Z,68.70
2023-02-09T17:22:37.798Z,68.78
2023-02-09T17:24:41.586Z,68.77
2023-02-09T17:26:45.250Z,69.03
2023-02-09T17:28:49.246Z,69.20
2023-02-09T17:30:54.564Z,69.24
2023-02-09T17:33:01.458Z,69.44
2023-02-09T17:35:05.207Z,69.55
2023-02-09T17:37:15.046Z,69.36
2023-02-09T17:39:19.458Z,69.30
2023-02-09T17:41:26.812Z,69.06
2023-02-09T17:43:30.697Z,69.07
2023-02-09T17:45:35.342Z,69.08
2023-02-09T17:47:40.664Z,68.95
2023-02-09T17:49:44.359Z,69.02
2023-02-09T17:51:49.152Z,68.82
2023-02-09T17:53:54.021Z,68.81
2023-02-09T17:55:57.577Z,68.53
2023-02-09T17:58:01.983Z,68.67
2023-02-09T18:00:06.443Z,68.94
2023-02-09T18:02:16.557Z,68.94
2023-02-09T18:04:22.831Z,68.91
2023-02-09T18:06:33.781Z,69.11
2023-02-09T18:08:37.424Z,69.09
2023-02-09T18:10:42.449Z,69.08
2023-02-09T18:12:46.341Z,69.32
2023-02-09T18:14:50.421Z,69.15
2023-02-09T18:16:55.311Z,69.55
2023-02-09T18:18:59.027Z,69.27
2023-02-09T18:21:03.046Z,69.67
2023-02-09T18:23:07.441Z,69.33
2023-02-09T18:25:19.529Z,69.60
2023-02-09T18:27:25.686Z,69.70
2023-02-09T18:29:30.364Z,69.58
2023-02-09T18:31:34.554Z,69.47
2023-02-09T18:33:38.877Z,69.55
2023-02-09T18:35:44.973Z,69.73
2023-02-09T18:37:49.352Z,69.65
2023-02-09T18:39:52.932Z,69.57
2023-02-09T18:41:56.574Z,69.37
2023-02-09T18:44:01.495Z,69.46
2023-02-09T18:46:05.544Z,69.55
2023-02-09T18:48:09.207Z,69.42
2023-02-09T18:50:16.481Z,69.31
2023-02-09T18:52:25.172Z,69.63
2023-02-09T18:54:31.366Z,69.78
2023-02-09T18:56:34.819Z,69.83
2023-02-09T18:58:38.921Z,69.65
2023-02-09T19:00:43.962Z,69.77
2023-02-09T19:02:47.987Z,69.58
2023-02-09T19:04:52.032Z,69.73
2023-02-09T19:06:56.299Z,69.93
2023-02-09T19:09:00.218Z,69.81
2023-02-09T19:11:05.369Z,69.87
2023-02-09T19:13:08.627Z,69.81
2023-02-09T19:15:12.944Z,70.10
2023-02-09T19:17:19.791Z,69.86
2023-02-09T19:19:23.499Z,70.35
2023-02-09T19:21:27.731Z,70.32
2023-02-09T19:23:31.687Z,70.50
2023-02-09T19:25:35.903Z,70.41
2023-02-09T19:27:39.882Z,70.84
2023-02-09T19:29:43.990Z,70.80
2023-02-09T19:31:48.836Z,70.80
2023-02-09T19:33:58.179Z,70.82
2023-02-09T19:36:02.197Z,70.83
2023-02-09T19:38:06.381Z,70.88
2023-02-09T19:40:21.297Z,70.78
2023-02-09T19:42:24.997Z,70.80
2023-02-09T19:44:29.430Z,71.01
2023-02-09T19:46:33.538Z,71.13
2023-02-09T19:48:38.699Z,71.52
2023-02-09T19:50:43.735Z,71.98
2023-02-09T19:52:49.471Z,71.43
2023-02-09T19:54:53.353Z,71.55
2023-02-09T19:56:57.094Z,71.47
2023-02-09T19:59:02.068Z,71.74
2023-02-09T20:01:10.173Z,71.48
2023-02-09T20:03:15.106Z,71.88
2023-02-09T20:05:19.070Z,71.61
2023-02-09T20:07:24.502Z,71.96
2023-02-09T20:09:28.385Z,72.06
2023-02-09T20:11:33.520Z,72.01
2023-02-09T20:13:37.117Z,72.19
2023-02-09T20:15:42.688Z,71.70
2023-02-09T20:19:51.204Z,72.07
2023-02-09T20:21:55.533Z,72.04
2023-02-09T20:24:01.298Z,72.18
2023-02-09T20:26:11.793Z,71.85
2023-02-09T20:28:15.912Z,72.10
2023-02-09T20:30:19.691Z,72.01
2023-02-09T20:32:23.662Z,72.11
2023-02-09T20:34:27.751Z,71.86
2023-02-09T20:36:31.996Z,72.29
2023-02-09T20:38:36.759Z,71.78
2023-02-09T20:40:45.261Z,71.79
2023-02-09T20:43:07.394Z,71.70
2023-02-09T20:45:32.118Z,71.86
2023-02-09T20:47:36.033Z,71.84
2023-02-09T20:49:40.859Z,71.27
2023-02-09T20:51:46.148Z,70.94
2023-02-09T20:53:50.390Z,71.09
2023-02-09T20:55:55.642Z,70.86
2023-02-09T20:58:00.424Z,70.82
2023-02-09T21:00:09.356Z,71.30
2023-02-09T21:02:13.844Z,70.96
2023-02-09T21:04:18.638Z,71.21
2023-02-09T21:06:23.307Z,71.30
2023-02-09T21:08:27.201Z,71.36
2023-02-09T21:10:35.716Z,71.35
2023-02-09T21:12:41.041Z,71.43
2023-02-09T21:14:46.717Z,71.40
2023-02-09T21:16:58.551Z,71.50
2023-02-09T21:19:02.234Z,71.18
2023-02-09T21:21:06.359Z,71.24
2023-02-09T21:23:10.537Z,71.72
2023-02-09T21:25:15.057Z,71.53
2023-02-09T21:27:19.471Z,71.90
2023-02-09T21:29:24.415Z,71.76
2023-02-09T21:31:29.332Z,71.62
2023-02-09T21:33:32.724Z,71.75
2023-02-09T21:35:39.774Z,72.14
2023-02-09T21:37:44.594Z,72.50
2023-02-09T21:39:48.284Z,72.20
2023-02-09T21:42:09.451Z,72.29
2023-02-09T21:44:15.209Z,72.31
2023-02-09T21:46:20.737Z,72.78
2023-02-09T21:48:24.422Z,72.82
2023-02-09T21:50:27.986Z,72.86
2023-02-09T21:52:34.690Z,72.62
2023-02-09T21:54:38.791Z,72.62
2023-02-09T21:56:42.696Z,72.89
2023-02-09T21:58:46.587Z,73.07
2023-02-09T22:00:58.210Z,72.91
2023-02-09T22:03:03.508Z,73.39
2023-02-09T22:05:08.952Z,72.78
2023-02-09T22:07:13.435Z,72.76
2023-02-09T22:09:17.518Z,72.97
2023-02-09T22:11:21.283Z,72.98
2023-02-09T22:13:25.331Z,73.56
2023-02-09T22:15:29.389Z,73.33
2023-02-09T22:17:33.455Z,73.65
2023-02-09T22:19:38.791Z,72.82
2023-02-09T22:21:43.313Z,73.35
2023-02-09T22:23:47.418Z,73.42
2023-02-09T22:25:51.163Z,73.07
2023-02-09T22:27:54.896Z,72.87
2023-02-09T22:29:58.472Z,72.87
2023-02-09T22:32:02.363Z,73.01
2023-02-09T22:34:07.351Z,73.20
2023-02-09T22:36:15.004Z,72.92
2023-02-09T22:38:18.850Z,72.60
2023-02-09T22:40:22.701Z,73.02
2023-02-09T22:42:26.446Z,72.88
2023-02-09T22:44:30.508Z,73.28
2023-02-09T22:46:36.236Z,73.47
2023-02-09T22:48:40.003Z,73.35
2023-02-09T22:50:43.779Z,73.24
2023-02-09T22:52:49.016Z,73.36
2023-02-09T22:54:53.230Z,73.31
2023-02-09T22:56:56.998Z,73.65
2023-02-09T22:59:02.106Z,73.15
2023-02-09T23:01:06.047Z,73.19
2023-02-09T23:03:09.937Z,73.50
2023-02-09T23:05:13.856Z,74.00
2023-02-09T23:07:17.527Z,74.10
2023-02-09T23:09:22.840Z,74.66
2023-02-09T23:11:27.048Z,74.52
2023-02-09T23:13:33.314Z,74.79
2023-02-09T23:15:37.261Z,74.28
2023-02-09T23:17:41.089Z,74.34
2023-02-09T23:19:44.989Z,74.30
2023-02-09T23:21:50.430Z,74.01
2023-02-09T23:23:54.636Z,73.97
2023-02-09T23:25:59.631Z,73.84
2023-02-09T23:28:03.587Z,73.81
2023-02-09T23:30:07.793Z,74.17
2023-02-09T23:32:11.657Z,74.16
2023-02-09T23:34:18.268Z,73.91
2023-02-09T23:36:25.060Z,74.05
2023-02-09T23:38:29.285Z,74.25
2023-02-09T23:40:33.797Z,73.97
2023-02-09T23:42:39.728Z,74.31
2023-02-09T23:44:44.073Z,74.47
2023-02-09T23:46:48.517Z,74.57
2023-02-09T23:48:54.885Z,74.10
2023-02-09T23:51:02.351Z,74.31
2023-02-09T23:53:08.902Z,74.93
2023-02-09T23:55:13.536Z,75.01
2023-02-09T23:57:20.336Z,75.19
2023-02-09T23:59:26.377Z,74.76
